aviador You're here:

MDAB Decoded Metar

SAMANA in DOMINICAN REPUBLIC
Report Time2018-06-18 15:00:00
UTC Time2018-06-18 15:22:57
Flight Rules vfr VFR
Wind040° at 04 kt
W.Decomp.*RWY 11: 2.1 kt HW 3.4 kt LCW
W.Rank040° ranks 3
Current wind is below 040° avg. (6.4)
Visibility9999 m
Phenomena:N/A
Clouds:Few 018 Hf
Expected CloudBase > 1,600 ft AGL from Temp-Dew spread
CeilingNone
Temp30°C (ISA +15)
Dew Point26°C (79% RH)
Heat Index37.4°C
QNH1018 hPa
Density Alt2,133 ft
Elevation115 ft
Report Wrong Elevation
Raw Report
METAR MDAB 181500Z 04004KT 9999 FEW018 30/26 Q1018=

Extra information for MDAB:More info

Metar Taf Metar & Taf Last 4 Metars F.Rules Stats Wind Profile Meteogram Temp Stats Airport Information Weather charts Add Link Nearby VenuesMetar ALERT Operation Metar Decoded Social comments